Time,TemperatureF,DewpointF,PressureIn,WindDirection,WindDirectionDegrees,WindSpeedMPH,WindSpeedGustMPH,Humidity,HourlyPrecipIn,Conditions,Clouds,dailyrainin,SolarRadiationWatts/m^2,SoftwareType,DateUTC
2013-12-07 00:02:00,14.0,8.0,-100.00,East,79,6.0,22.0,76,0.00,,,0.00,0.000000,,2013-12-07 08:02:00,
2013-12-07 00:12:00,14.0,8.0,-100.00,East,79,6.0,22.0,76,0.00,,,0.00,0.000000,,2013-12-07 08:12:00,
2013-12-07 00:21:00,14.0,8.0,-100.00,East,79,6.0,22.0,76,0.00,,,0.00,0.000000,,2013-12-07 08:21:00,
2013-12-07 00:52:00,13.0,6.0,-100.00,ENE,65,3.0,17.0,72,0.00,,,0.00,0.000000,,2013-12-07 08:52:00,
2013-12-07 01:02:00,13.0,6.0,-100.00,ENE,65,3.0,17.0,72,0.00,,,0.00,0.000000,,2013-12-07 09:02:00,
2013-12-07 01:12:00,13.0,6.0,-100.00,ENE,65,3.0,17.0,72,0.00,,,0.00,0.000000,,2013-12-07 09:12:00,
2013-12-07 01:21:00,13.0,6.0,-100.00,ENE,65,3.0,17.0,72,0.00,,,0.00,0.000000,,2013-12-07 09:21:00,
2013-12-07 01:53:00,13.0,6.0,-100.00,NE,46,5.0,26.0,74,0.00,,,0.00,0.000000,,2013-12-07 09:53:00,
2013-12-07 02:03:00,13.0,6.0,-100.00,NE,46,5.0,26.0,74,0.00,,,0.00,0.000000,,2013-12-07 10:03:00,
2013-12-07 02:13:00,13.0,6.0,-100.00,NE,46,5.0,26.0,74,0.00,,,0.00,0.000000,,2013-12-07 10:13:00,
2013-12-07 02:23:00,13.0,6.0,-100.00,NE,46,5.0,26.0,74,0.00,,,0.00,0.000000,,2013-12-07 10:23:00,
2013-12-07 02:53:00,13.0,6.0,-100.00,ENE,58,3.0,22.0,74,0.00,,,0.00,0.000000,,2013-12-07 10:53:00,
2013-12-07 03:02:00,13.0,6.0,-100.00,ENE,58,3.0,22.0,74,0.00,,,0.00,0.000000,,2013-12-07 11:02:00,
2013-12-07 03:12:00,13.0,6.0,-100.00,ENE,58,3.0,22.0,74,0.00,,,0.00,0.000000,,2013-12-07 11:12:00,
2013-12-07 03:22:00,13.0,6.0,-100.00,ENE,58,3.0,22.0,74,0.00,,,0.00,0.000000,,2013-12-07 11:22:00,
2013-12-07 03:52:00,13.0,5.0,-100.00,North,6,6.0,20.0,71,0.00,,,0.00,0.000000,,2013-12-07 11:52:00,
2013-12-07 04:02:00,13.0,5.0,-100.00,North,6,6.0,20.0,71,0.00,,,0.00,0.000000,,2013-12-07 12:02:00,
2013-12-07 04:12:00,13.0,5.0,-100.00,North,6,6.0,20.0,71,0.00,,,0.00,0.000000,,2013-12-07 12:12:00,
2013-12-07 04:22:00,13.0,5.0,-100.00,North,6,6.0,20.0,71,0.00,,,0.00,0.000000,,2013-12-07 12:22:00,
2013-12-07 04:52:00,13.0,5.0,-100.00,NNE,16,5.0,19.0,69,0.00,,,0.00,0.000000,,2013-12-07 12:52:00,
2013-12-07 05:02:00,13.0,5.0,-100.00,NNE,16,5.0,19.0,69,0.00,,,0.00,0.000000,,2013-12-07 13:02:00,
2013-12-07 05:11:00,13.0,5.0,-100.00,NNE,16,5.0,19.0,69,0.00,,,0.00,0.000000,,2013-12-07 13:11:00,
2013-12-07 05:22:00,13.0,5.0,-100.00,NNE,16,5.0,19.0,69,0.00,,,0.00,0.000000,,2013-12-07 13:22:00,
2013-12-07 05:52:00,12.0,3.0,-100.00,East,83,3.0,26.0,67,0.00,,,0.00,0.000000,,2013-12-07 13:52:00,
2013-12-07 06:02:00,12.0,3.0,-100.00,East,83,3.0,26.0,67,0.00,,,0.00,0.000000,,2013-12-07 14:02:00,
2013-12-07 06:11:00,12.0,3.0,-100.00,East,83,3.0,26.0,67,0.00,,,0.00,0.000000,,2013-12-07 14:11:00,
2013-12-07 06:21:00,12.0,3.0,-100.00,East,83,3.0,26.0,67,0.00,,,0.00,0.000000,,2013-12-07 14:21:00,
2013-12-07 06:52:00,13.0,6.0,-100.00,South,188,2.0,12.0,74,0.00,,,0.00,0.000000,,2013-12-07 14:52:00,
2013-12-07 07:02:00,13.0,6.0,-100.00,South,188,2.0,12.0,74,0.00,,,0.00,0.000000,,2013-12-07 15:02:00,
2013-12-07 07:11:00,13.0,6.0,-100.00,South,188,2.0,12.0,74,0.00,,,0.00,0.000000,,2013-12-07 15:11:00,
2013-12-07 07:21:00,13.0,6.0,-100.00,South,188,2.0,12.0,74,0.00,,,0.00,0.000000,,2013-12-07 15:21:00,
2013-12-07 07:54:00,12.0,4.0,-100.00,ENE,64,5.0,16.0,69,0.00,,,0.00,0.000000,,2013-12-07 15:54:00,
2013-12-07 08:03:00,12.0,4.0,-100.00,ENE,64,5.0,16.0,69,0.00,,,0.00,0.000000,,2013-12-07 16:03:00,
2013-12-07 08:13:00,12.0,4.0,-100.00,ENE,64,5.0,16.0,69,0.00,,,0.00,0.000000,,2013-12-07 16:13:00,
2013-12-07 08:23:00,12.0,4.0,-100.00,ENE,64,5.0,16.0,69,0.00,,,0.00,0.000000,,2013-12-07 16:23:00,
2013-12-07 08:53:00,13.0,1.0,-100.00,ENE,58,5.0,15.0,58,0.00,,,0.00,5.000000,,2013-12-07 16:53:00,
2013-12-07 09:02:00,13.0,1.0,-100.00,ENE,58,5.0,15.0,58,0.00,,,0.00,5.000000,,2013-12-07 17:02:00,
2013-12-07 09:12:00,13.0,1.0,-100.00,ENE,58,5.0,15.0,58,0.00,,,0.00,5.000000,,2013-12-07 17:12:00,
2013-12-07 09:22:00,13.0,1.0,-100.00,ENE,58,5.0,15.0,58,0.00,,,0.00,5.000000,,2013-12-07 17:22:00,
2013-12-07 09:52:00,14.0,-3.0,-100.00,ENE,57,8.0,19.0,45,0.00,,,0.00,19.000000,,2013-12-07 17:52:00,
2013-12-07 10:02:00,14.0,-3.0,-100.00,ENE,57,8.0,19.0,45,0.00,,,0.00,19.000000,,2013-12-07 18:02:00,
2013-12-07 10:12:00,14.0,-3.0,-100.00,ENE,57,8.0,19.0,45,0.00,,,0.00,19.000000,,2013-12-07 18:12:00,
2013-12-07 10:22:00,14.0,-3.0,-100.00,ENE,57,8.0,19.0,45,0.00,,,0.00,19.000000,,2013-12-07 18:22:00,
2013-12-07 10:52:00,15.0,-2.0,-100.00,East,87,4.0,24.0,46,0.00,,,0.00,61.000000,,2013-12-07 18:52:00,
2013-12-07 11:02:00,15.0,-2.0,-100.00,East,87,4.0,24.0,46,0.00,,,0.00,61.000000,,2013-12-07 19:02:00,
2013-12-07 11:11:00,15.0,-2.0,-100.00,East,87,4.0,24.0,46,0.00,,,0.00,61.000000,,2013-12-07 19:11:00,
2013-12-07 11:21:00,15.0,-2.0,-100.00,East,87,4.0,24.0,46,0.00,,,0.00,61.000000,,2013-12-07 19:21:00,
2013-12-07 12:53:00,21.0,-1.0,-100.00,ENE,62,1.0,19.0,37,0.00,,,0.00,200.000000,,2013-12-07 20:53:00,
2013-12-07 13:02:00,21.0,-1.0,-100.00,ENE,62,1.0,19.0,37,0.00,,,0.00,200.000000,,2013-12-07 21:02:00,
2013-12-07 13:11:00,21.0,-1.0,-100.00,ENE,62,1.0,19.0,37,0.00,,,0.00,200.000000,,2013-12-07 21:11:00,
2013-12-07 13:22:00,21.0,-1.0,-100.00,ENE,62,1.0,19.0,37,0.00,,,0.00,200.000000,,2013-12-07 21:22:00,
2013-12-07 13:53:00,22.0,-1.0,-100.00,SSW,195,2.0,9.0,35,0.00,,,0.00,275.000000,,2013-12-07 21:53:00,
2013-12-07 14:03:00,22.0,-1.0,-100.00,SSW,195,2.0,9.0,35,0.00,,,0.00,275.000000,,2013-12-07 22:03:00,
2013-12-07 14:13:00,22.0,-1.0,-100.00,SSW,195,2.0,9.0,35,0.00,,,0.00,275.000000,,2013-12-07 22:13:00,
2013-12-07 14:23:00,22.0,-1.0,-100.00,SSW,195,2.0,9.0,35,0.00,,,0.00,275.000000,,2013-12-07 22:23:00,
2013-12-07 15:12:00,20.0,-8.0,-100.00,ENE,61,0.0,5.0,28,0.00,,,0.00,157.000000,,2013-12-07 23:12:00,
2013-12-07 15:21:00,20.0,-8.0,-100.00,ENE,61,0.0,5.0,28,0.00,,,0.00,157.000000,,2013-12-07 23:21:00,
2013-12-07 15:52:00,20.0,-3.0,-100.00,SSW,193,0.0,5.0,36,0.00,,,0.00,41.000000,,2013-12-07 23:52:00,
2013-12-07 16:02:00,20.0,-3.0,-100.00,SSW,193,0.0,5.0,36,0.00,,,0.00,41.000000,,2013-12-08 00:02:00,
2013-12-07 16:11:00,20.0,-3.0,-100.00,SSW,193,0.0,5.0,36,0.00,,,0.00,41.000000,,2013-12-08 00:11:00,
2013-12-07 16:22:00,20.0,-3.0,-100.00,SSW,193,0.0,5.0,36,0.00,,,0.00,41.000000,,2013-12-08 00:22:00,
2013-12-07 16:52:00,17.0,-4.0,-100.00,NW,308,0.0,2.0,38,0.00,,,0.00,12.000000,,2013-12-08 00:52:00,
2013-12-07 17:02:00,17.0,-4.0,-100.00,NW,308,0.0,2.0,38,0.00,,,0.00,12.000000,,2013-12-08 01:02:00,
2013-12-07 17:12:00,17.0,-4.0,-100.00,NW,308,0.0,2.0,38,0.00,,,0.00,12.000000,,2013-12-08 01:12:00,
2013-12-07 17:22:00,17.0,-4.0,-100.00,NW,308,0.0,2.0,38,0.00,,,0.00,12.000000,,2013-12-08 01:22:00,
2013-12-07 17:52:00,16.0,3.0,-100.00,North,11,1.0,4.0,56,0.00,,,0.00,1.000000,,2013-12-08 01:52:00,
2013-12-07 18:02:00,16.0,3.0,-100.00,North,11,1.0,4.0,56,0.00,,,0.00,1.000000,,2013-12-08 02:02:00,
2013-12-07 18:12:00,16.0,3.0,-100.00,North,11,1.0,4.0,56,0.00,,,0.00,1.000000,,2013-12-08 02:12:00,
2013-12-07 18:21:00,16.0,3.0,-100.00,North,11,1.0,4.0,56,0.00,,,0.00,1.000000,,2013-12-08 02:21:00,
2013-12-07 18:52:00,15.0,1.0,-100.00,SSE,168,1.0,5.0,53,0.00,,,0.00,0.000000,,2013-12-08 02:52:00,
2013-12-07 19:02:00,15.0,1.0,-100.00,SSE,168,1.0,5.0,53,0.00,,,0.00,0.000000,,2013-12-08 03:02:00,
2013-12-07 19:11:00,15.0,1.0,-100.00,SSE,168,1.0,5.0,53,0.00,,,0.00,0.000000,,2013-12-08 03:11:00,
2013-12-07 19:22:00,15.0,1.0,-100.00,SSE,168,1.0,5.0,53,0.00,,,0.00,0.000000,,2013-12-08 03:22:00,
2013-12-07 19:54:00,14.0,4.0,-100.00,SE,137,0.0,2.0,65,0.00,,,0.00,0.000000,,2013-12-08 03:54:00,
2013-12-07 20:02:00,-999.0,-99.9,-100.00,SE,137,0.0,2.0,-999,0.00,,,0.00,0.000000,,2013-12-08 04:02:00,
2013-12-07 20:13:00,14.0,4.0,-100.00,SE,137,0.0,2.0,65,0.00,,,0.00,0.000000,,2013-12-08 04:13:00,
2013-12-07 20:23:00,14.0,4.0,-100.00,SE,137,0.0,2.0,65,0.00,,,0.00,0.000000,,2013-12-08 04:23:00,
2013-12-07 20:53:00,14.0,2.0,-100.00,South,190,1.0,3.0,59,0.00,,,-99.99,0.000000,,2013-12-08 04:53:00,
2013-12-07 21:02:00,14.0,2.0,-100.00,South,190,1.0,3.0,59,0.00,,,-99.99,0.000000,,2013-12-08 05:02:00,
2013-12-07 21:12:00,14.0,2.0,-100.00,South,190,1.0,3.0,59,0.00,,,-99.99,0.000000,,2013-12-08 05:12:00,
2013-12-07 21:22:00,14.0,2.0,-100.00,South,190,1.0,3.0,59,0.00,,,-99.99,0.000000,,2013-12-08 05:22:00,
2013-12-07 21:53:00,14.0,2.0,-100.00,SE,144,2.0,3.0,57,0.00,,,0.00,0.000000,,2013-12-08 05:53:00,
2013-12-07 22:02:00,14.0,2.0,-100.00,SE,144,2.0,3.0,57,0.00,,,0.00,0.000000,,2013-12-08 06:02:00,
2013-12-07 22:12:00,14.0,2.0,-100.00,SE,144,2.0,3.0,57,0.00,,,0.00,0.000000,,2013-12-08 06:12:00,
2013-12-07 22:22:00,14.0,2.0,-100.00,SE,144,2.0,3.0,57,0.00,,,0.00,0.000000,,2013-12-08 06:22:00,
2013-12-07 22:52:00,15.0,0.0,-100.00,SSW,205,0.0,3.0,50,0.00,,,0.00,0.000000,,2013-12-08 06:52:00,
2013-12-07 23:02:00,15.0,0.0,-100.00,SSW,205,0.0,3.0,50,0.00,,,0.00,0.000000,,2013-12-08 07:02:00,
2013-12-07 23:12:00,15.0,0.0,-100.00,SSW,205,0.0,3.0,50,0.00,,,0.00,0.000000,,2013-12-08 07:12:00,
2013-12-07 23:21:00,15.0,0.0,-100.00,SSW,205,0.0,3.0,50,0.00,,,0.00,0.000000,,2013-12-08 07:21:00,
2013-12-07 23:53:00,16.0,-2.0,-100.00,SE,137,2.0,3.0,44,0.00,,,0.00,0.000000,,2013-12-08 07:53:00,